createdAt,value
2018-06-04T00:01:52.963Z,16.83
2018-06-04T00:04:19.872Z,16.83
2018-06-04T00:06:46.768Z,16.93
2018-06-04T00:09:13.656Z,16.89
2018-06-04T00:11:40.544Z,16.86
2018-06-04T00:14:07.448Z,16.82
2018-06-04T00:16:34.392Z,16.84
2018-06-04T00:19:01.237Z,16.84
2018-06-04T00:21:28.140Z,16.82
2018-06-04T00:23:55.033Z,16.79
2018-06-04T00:26:21.936Z,16.81
2018-06-04T00:28:48.821Z,16.86
2018-06-04T00:31:15.740Z,16.79
2018-06-04T00:33:42.636Z,16.82
2018-06-04T00:36:09.537Z,16.77
2018-06-04T00:38:36.437Z,16.74
2018-06-04T00:41:03.335Z,16.76
2018-06-04T00:43:30.246Z,16.76
2018-06-04T00:45:57.145Z,16.70
2018-06-04T00:48:24.047Z,16.73
2018-06-04T00:50:50.942Z,16.86
2018-06-04T00:53:17.831Z,16.77
2018-06-04T00:55:56.547Z,16.74
2018-06-04T00:58:23.448Z,16.69
2018-06-04T01:00:50.338Z,16.70
2018-06-04T01:03:17.243Z,16.73
2018-06-04T01:05:44.140Z,16.68
2018-06-04T01:08:11.038Z,16.74
2018-06-04T01:10:37.924Z,16.73
2018-06-04T01:13:04.821Z,16.63
2018-06-04T01:15:31.706Z,16.70
2018-06-04T01:17:58.632Z,16.73
2018-06-04T01:20:25.787Z,16.68
2018-06-04T01:22:52.684Z,16.72
2018-06-04T01:25:19.578Z,16.74
2018-06-04T01:27:46.468Z,16.83
2018-06-04T01:30:13.346Z,16.74
2018-06-04T01:32:40.237Z,16.87
2018-06-04T01:35:07.120Z,16.79
2018-06-04T01:37:34.008Z,16.87
2018-06-04T01:40:00.880Z,16.73
2018-06-04T01:42:27.757Z,16.83
2018-06-04T01:44:54.645Z,16.86
2018-06-04T01:47:21.516Z,16.79
2018-06-04T01:49:48.385Z,16.79
2018-06-04T01:52:15.269Z,16.85
2018-06-04T01:54:42.150Z,16.81
2018-06-04T01:57:09.033Z,16.84
2018-06-04T01:59:35.925Z,16.81
2018-06-04T02:02:02.842Z,16.81
2018-06-04T02:04:29.728Z,16.75
2018-06-04T02:06:56.612Z,16.80
2018-06-04T02:09:23.513Z,16.80
2018-06-04T02:11:50.381Z,16.75
2018-06-04T02:14:17.284Z,16.63
2018-06-04T02:16:44.172Z,16.61
2018-06-04T02:19:11.073Z,16.57
2018-06-04T02:21:37.961Z,16.52
2018-06-04T02:24:04.940Z,16.57
2018-06-04T02:26:31.812Z,16.49
2018-06-04T02:28:58.799Z,16.53
2018-06-04T02:31:25.636Z,16.50
2018-06-04T02:33:52.534Z,16.49
2018-06-04T02:36:19.408Z,16.46
2018-06-04T02:38:46.307Z,16.47
2018-06-04T02:41:13.195Z,16.44
2018-06-04T02:43:40.174Z,16.46
2018-06-04T02:46:07.052Z,16.45
2018-06-04T02:48:33.952Z,16.46
2018-06-04T02:51:00.856Z,16.48
2018-06-04T02:53:28.060Z,16.53
2018-06-04T02:55:54.949Z,16.49
2018-06-04T02:58:21.851Z,16.48
2018-06-04T03:00:48.832Z,16.42
2018-06-04T03:03:15.742Z,16.55
2018-06-04T03:05:42.624Z,16.54
2018-06-04T03:08:09.540Z,16.55
2018-06-04T03:10:36.425Z,16.54
2018-06-04T03:13:03.323Z,16.53
2018-06-04T03:15:30.212Z,16.60
2018-06-04T03:17:57.116Z,16.58
2018-06-04T03:20:24.011Z,16.60
2018-06-04T03:22:50.904Z,16.65
2018-06-04T03:25:17.793Z,16.56
2018-06-04T03:27:44.668Z,16.50
2018-06-04T03:30:11.579Z,16.61
2018-06-04T03:32:38.450Z,16.58
2018-06-04T03:35:05.353Z,16.46
2018-06-04T03:37:32.243Z,16.54
2018-06-04T03:39:59.140Z,16.69
2018-06-04T03:42:26.021Z,16.60
2018-06-04T03:44:52.913Z,16.57
2018-06-04T03:47:19.830Z,16.57
2018-06-04T03:49:46.724Z,16.51
2018-06-04T03:52:13.612Z,16.50
2018-06-04T03:54:40.517Z,16.58
2018-06-04T03:57:07.400Z,16.51
2018-06-04T03:59:34.288Z,16.41
2018-06-04T04:02:01.193Z,16.39
2018-06-04T04:04:28.082Z,16.42
2018-06-04T04:06:54.973Z,16.48
2018-06-04T04:09:21.875Z,16.43
2018-06-04T04:11:48.764Z,16.52
2018-06-04T04:14:15.656Z,16.43
2018-06-04T04:16:42.545Z,16.43
2018-06-04T04:19:09.448Z,16.44
2018-06-04T04:21:36.372Z,16.39
2018-06-04T04:24:03.292Z,16.44
2018-06-04T04:26:30.200Z,16.49
2018-06-04T04:28:57.112Z,16.39
2018-06-04T04:31:24.022Z,16.45
2018-06-04T04:33:50.948Z,16.51
2018-06-04T04:36:17.869Z,16.49
2018-06-04T04:38:44.789Z,16.39
2018-06-04T04:41:11.704Z,16.42
2018-06-04T04:43:38.624Z,16.24
2018-06-04T04:46:05.521Z,16.14
2018-06-04T04:48:32.452Z,16.09
2018-06-04T04:50:59.352Z,16.04
2018-06-04T04:53:26.264Z,16.08
2018-06-04T04:55:53.203Z,16.09
2018-06-04T04:58:20.103Z,16.06
2018-06-04T05:00:47.032Z,16.13
2018-06-04T05:03:13.949Z,16.23
2018-06-04T05:05:40.884Z,16.37
2018-06-04T05:08:07.793Z,16.43
2018-06-04T05:10:34.715Z,16.35
2018-06-04T05:13:01.622Z,16.42
2018-06-04T05:15:28.525Z,16.43
2018-06-04T05:17:55.446Z,16.37
2018-06-04T05:20:22.387Z,16.25
2018-06-04T05:22:49.313Z,16.14
2018-06-04T05:25:16.241Z,16.18
2018-06-04T05:27:43.169Z,16.20
2018-06-04T05:30:10.097Z,16.20
2018-06-04T05:32:37.017Z,16.25
2018-06-04T05:35:03.944Z,16.16
2018-06-04T05:37:30.865Z,16.17
2018-06-04T05:39:57.792Z,16.19
2018-06-04T05:42:24.787Z,16.15
2018-06-04T05:44:51.628Z,16.20
2018-06-04T05:47:18.540Z,16.12
2018-06-04T05:49:45.460Z,16.09
2018-06-04T05:52:12.367Z,16.15
2018-06-04T05:54:39.286Z,16.33
2018-06-04T05:57:06.189Z,16.29
2018-06-04T05:59:33.125Z,16.38
2018-06-04T06:02:00.013Z,16.37
2018-06-04T06:04:26.929Z,16.36
2018-06-04T06:06:53.837Z,16.45
2018-06-04T06:09:20.736Z,16.30
2018-06-04T06:11:47.658Z,16.24
2018-06-04T06:14:14.643Z,16.34
2018-06-04T06:16:41.520Z,16.18
2018-06-04T06:19:08.429Z,16.31
2018-06-04T06:21:35.324Z,16.38
2018-06-04T06:24:02.226Z,16.43
2018-06-04T06:26:29.133Z,16.51
2018-06-04T06:28:56.032Z,16.33
2018-06-04T06:31:22.948Z,16.29
2018-06-04T06:33:49.851Z,16.52
2018-06-04T06:36:16.756Z,16.56
2018-06-04T06:38:43.670Z,16.24
2018-06-04T06:41:10.593Z,16.31
2018-06-04T06:43:37.490Z,16.53
2018-06-04T06:46:04.480Z,16.59
2018-06-04T06:48:31.356Z,16.40
2018-06-04T06:50:58.308Z,16.56
2018-06-04T06:53:25.189Z,16.57
2018-06-04T06:55:52.125Z,16.65
2018-06-04T06:58:19.023Z,16.83
2018-06-04T07:00:45.914Z,16.84
2018-06-04T07:03:12.801Z,16.62
2018-06-04T07:05:39.704Z,16.73
2018-06-04T07:08:06.582Z,16.57
2018-06-04T07:10:33.481Z,16.66
2018-06-04T07:13:00.366Z,16.65
2018-06-04T07:15:27.300Z,16.70
2018-06-04T07:17:54.181Z,16.72
2018-06-04T07:20:21.073Z,16.56
2018-06-04T07:22:47.960Z,16.59
2018-06-04T07:25:14.923Z,16.65
2018-06-04T07:27:41.860Z,16.80
2018-06-04T07:30:08.782Z,16.60
2018-06-04T07:32:35.892Z,16.77
2018-06-04T07:35:02.873Z,16.60
2018-06-04T07:37:29.760Z,16.68
2018-06-04T07:39:56.661Z,16.75
2018-06-04T07:42:23.557Z,16.50
2018-06-04T07:44:50.460Z,16.54
2018-06-04T07:47:17.339Z,16.55
2018-06-04T07:49:44.254Z,16.52
2018-06-04T07:52:11.157Z,16.45
2018-06-04T07:54:38.073Z,16.45
2018-06-04T07:57:04.980Z,16.58
2018-06-04T07:59:31.899Z,16.57
2018-06-04T08:01:58.818Z,16.48
2018-06-04T08:04:25.777Z,16.41
2018-06-04T08:06:52.621Z,16.39
2018-06-04T08:09:19.545Z,16.35
2018-06-04T08:11:46.451Z,16.46
2018-06-04T08:14:13.344Z,16.39
2018-06-04T08:16:40.232Z,16.34
2018-06-04T08:19:07.127Z,16.23
2018-06-04T08:21:34.054Z,16.13
2018-06-04T08:24:01.017Z,16.09
2018-06-04T08:26:27.865Z,16.12
2018-06-04T08:28:54.752Z,16.25
2018-06-04T08:31:21.660Z,16.13
2018-06-04T08:33:48.539Z,16.19
2018-06-04T08:36:15.424Z,16.32
2018-06-04T08:38:42.296Z,16.38
2018-06-04T08:41:09.201Z,16.53
2018-06-04T08:43:36.098Z,16.41
2018-06-04T08:46:03.049Z,16.42
2018-06-04T08:48:29.936Z,16.52
2018-06-04T08:50:56.895Z,16.55
2018-06-04T08:53:23.754Z,16.55
2018-06-04T08:55:51.858Z,16.56
2018-06-04T08:58:18.771Z,16.41
2018-06-04T09:00:45.685Z,16.70
2018-06-04T09:03:12.598Z,16.65
2018-06-04T09:05:39.489Z,16.58
2018-06-04T09:08:06.385Z,16.48
2018-06-04T09:10:33.292Z,16.56
2018-06-04T09:13:00.176Z,16.61
2018-06-04T09:15:27.084Z,16.52
2018-06-04T09:17:53.981Z,16.54
2018-06-04T09:20:20.872Z,16.98
2018-06-04T09:22:47.793Z,17.34
2018-06-04T09:25:14.697Z,17.57
2018-06-04T09:27:41.610Z,18.36
2018-06-04T09:30:08.526Z,18.36
2018-06-04T09:32:35.454Z,18.32
2018-06-04T09:35:02.585Z,18.39
2018-06-04T09:37:29.493Z,18.15
2018-06-04T09:39:56.420Z,18.29
2018-06-04T09:42:23.362Z,18.12
2018-06-04T09:44:50.270Z,18.52
2018-06-04T09:47:17.182Z,18.46
2018-06-04T09:49:44.116Z,18.62
2018-06-04T09:52:11.010Z,18.75
2018-06-04T09:54:37.892Z,18.61
2018-06-04T09:57:04.804Z,18.16
2018-06-04T09:59:31.696Z,18.01
2018-06-04T10:01:58.596Z,18.08
2018-06-04T10:04:25.488Z,17.95
2018-06-04T10:06:52.380Z,17.68
2018-06-04T10:09:19.255Z,18.36
2018-06-04T10:11:46.142Z,18.11
2018-06-04T10:14:13.033Z,17.68
2018-06-04T10:16:39.924Z,18.21
2018-06-04T10:19:06.827Z,18.17
2018-06-04T10:21:33.737Z,18.02
2018-06-04T10:24:00.620Z,18.24
2018-06-04T10:26:27.485Z,18.06
2018-06-04T10:28:54.368Z,18.03
2018-06-04T10:31:21.260Z,18.10
2018-06-04T10:33:48.155Z,17.86
2018-06-04T10:36:15.054Z,18.10
2018-06-04T10:38:41.957Z,18.25
2018-06-04T10:41:08.849Z,18.19
2018-06-04T10:43:35.753Z,18.42
2018-06-04T10:46:02.647Z,18.66
2018-06-04T10:48:29.548Z,18.51
2018-06-04T10:50:56.416Z,18.48
2018-06-04T10:53:23.306Z,18.50
2018-06-04T10:55:50.180Z,18.50
2018-06-04T10:58:17.081Z,18.67
2018-06-04T11:00:43.973Z,18.71
2018-06-04T11:03:10.860Z,18.64
2018-06-04T11:05:37.805Z,18.69
2018-06-04T11:08:04.705Z,18.65
2018-06-04T11:10:31.576Z,18.84
2018-06-04T11:12:58.463Z,18.93
2018-06-04T11:15:25.353Z,19.72
2018-06-04T11:17:52.259Z,19.38
2018-06-04T11:20:19.139Z,19.13
2018-06-04T11:22:46.055Z,19.27
2018-06-04T11:25:12.940Z,19.70
2018-06-04T11:27:39.833Z,20.05
2018-06-04T11:30:06.732Z,19.84
2018-06-04T11:32:33.616Z,19.66
2018-06-04T11:35:00.499Z,19.87
2018-06-04T11:37:27.420Z,19.93
2018-06-04T11:39:54.274Z,19.80
2018-06-04T11:42:21.152Z,19.59
2018-06-04T11:44:48.038Z,20.35
2018-06-04T11:47:14.922Z,20.47
2018-06-04T11:49:41.817Z,19.94
2018-06-04T11:52:08.704Z,19.99
2018-06-04T11:54:35.593Z,19.85
2018-06-04T11:57:02.482Z,19.84
2018-06-04T11:59:29.376Z,19.21
2018-06-04T12:01:56.261Z,19.73
2018-06-04T12:04:23.160Z,19.45
2018-06-04T12:06:50.028Z,19.98
2018-06-04T12:09:16.920Z,20.96
2018-06-04T12:11:43.890Z,21.35
2018-06-04T12:14:10.723Z,21.17
2018-06-04T12:16:37.591Z,21.06
2018-06-04T12:19:04.495Z,21.04
2018-06-04T12:21:31.373Z,20.46
2018-06-04T12:23:58.270Z,20.51
2018-06-04T12:26:25.132Z,21.61
2018-06-04T12:28:52.021Z,22.21
2018-06-04T12:31:18.881Z,22.47
2018-06-04T12:33:45.772Z,21.62
2018-06-04T12:36:12.641Z,21.70
2018-06-04T12:38:39.545Z,21.56
2018-06-04T12:41:06.413Z,21.45
2018-06-04T12:43:33.299Z,21.85
2018-06-04T12:46:00.176Z,21.39
2018-06-04T12:48:27.099Z,21.48
2018-06-04T12:50:53.978Z,21.49
2018-06-04T12:53:20.855Z,21.81
2018-06-04T12:55:47.719Z,21.23
2018-06-04T12:58:14.595Z,21.81
2018-06-04T13:00:41.468Z,21.28
2018-06-04T13:03:08.356Z,21.32
2018-06-04T13:05:35.231Z,21.19
2018-06-04T13:08:02.121Z,21.17
2018-06-04T13:10:29.047Z,22.13
2018-06-04T13:12:55.882Z,21.92
2018-06-04T13:15:22.753Z,21.17
2018-06-04T13:17:49.631Z,21.61
2018-06-04T13:20:16.514Z,21.84
2018-06-04T13:22:43.392Z,21.75
2018-06-04T13:25:10.267Z,21.69
2018-06-04T13:27:37.144Z,21.28
2018-06-04T13:30:04.133Z,21.04
2018-06-04T13:32:31.008Z,20.81
2018-06-04T13:34:57.882Z,20.85
2018-06-04T13:37:24.770Z,21.29
2018-06-04T13:39:51.662Z,21.50
2018-06-04T13:42:18.526Z,21.24
2018-06-04T13:44:45.439Z,21.37
2018-06-04T13:47:12.331Z,21.48
2018-06-04T13:49:39.204Z,21.30
2018-06-04T13:52:06.099Z,21.40
2018-06-04T13:54:32.996Z,21.25
2018-06-04T13:56:59.876Z,21.26
2018-06-04T13:59:26.759Z,21.43
2018-06-04T14:01:53.634Z,22.04
2018-06-04T14:04:20.507Z,21.88
2018-06-04T14:06:47.388Z,21.73
2018-06-04T14:09:14.279Z,21.67
2018-06-04T14:11:41.144Z,21.54
2018-06-04T14:14:08.020Z,21.52
2018-06-04T14:16:34.904Z,21.54
2018-06-04T14:19:01.772Z,21.13
2018-06-04T14:21:28.682Z,21.15
2018-06-04T14:23:55.600Z,20.90
2018-06-04T14:26:22.488Z,20.96
2018-06-04T14:28:49.405Z,21.40
2018-06-04T14:31:16.295Z,21.35
2018-06-04T14:33:43.238Z,21.20
2018-06-04T14:36:10.108Z,20.93
2018-06-04T14:38:37.016Z,21.10
2018-06-04T14:41:03.914Z,20.99
2018-06-04T14:43:30.800Z,21.21
2018-06-04T14:45:57.738Z,20.72
2018-06-04T14:48:24.629Z,20.82
2018-06-04T14:50:51.532Z,20.73
2018-06-04T14:53:18.418Z,20.90
2018-06-04T14:55:45.340Z,20.61
2018-06-04T14:58:12.227Z,20.75
2018-06-04T15:00:39.148Z,20.71
2018-06-04T15:03:06.035Z,20.42
2018-06-04T15:05:32.942Z,20.56
2018-06-04T15:07:59.835Z,20.60
2018-06-04T15:10:26.732Z,20.73
2018-06-04T15:12:53.648Z,20.40
2018-06-04T15:15:20.568Z,20.60
2018-06-04T15:17:47.471Z,20.44
2018-06-04T15:20:14.399Z,20.38
2018-06-04T15:22:41.248Z,20.43
2018-06-04T15:25:08.139Z,20.36
2018-06-04T15:27:35.044Z,20.42
2018-06-04T15:30:01.940Z,20.48
2018-06-04T15:32:28.848Z,20.33
2018-06-04T15:34:55.747Z,20.44
2018-06-04T15:37:22.627Z,20.14
2018-06-04T15:39:49.507Z,20.13
2018-06-04T15:42:16.387Z,20.13
2018-06-04T15:44:43.274Z,19.65
2018-06-04T15:47:10.149Z,19.88
2018-06-04T15:49:37.040Z,19.91
2018-06-04T15:52:03.924Z,19.58
2018-06-04T15:54:30.807Z,19.75
2018-06-04T15:56:57.695Z,19.81
2018-06-04T15:59:24.588Z,20.01
2018-06-04T16:01:51.470Z,19.77
2018-06-04T16:04:18.365Z,19.82
2018-06-04T16:06:45.268Z,19.99
2018-06-04T16:09:12.136Z,19.80
2018-06-04T16:11:39.051Z,19.82
2018-06-04T16:14:05.944Z,19.49
2018-06-04T16:16:32.843Z,19.38
2018-06-04T16:18:59.721Z,19.27
2018-06-04T16:21:26.628Z,19.27
2018-06-04T16:23:53.507Z,19.13
2018-06-04T16:26:20.405Z,19.21
2018-06-04T16:28:47.521Z,19.28
2018-06-04T16:31:14.428Z,19.35
2018-06-04T16:33:41.311Z,19.30
2018-06-04T16:36:08.200Z,19.01
2018-06-04T16:38:35.093Z,19.26
2018-06-04T16:41:02.008Z,18.99
2018-06-04T16:43:28.896Z,19.13
2018-06-04T16:45:55.794Z,19.18
2018-06-04T16:48:22.687Z,19.23
2018-06-04T16:50:49.591Z,19.43
2018-06-04T16:53:16.692Z,19.07
2018-06-04T16:55:43.713Z,19.01
2018-06-04T16:58:10.592Z,18.85
2018-06-04T17:00:37.487Z,18.80
2018-06-04T17:03:04.371Z,18.94
2018-06-04T17:05:31.275Z,18.81
2018-06-04T17:07:58.216Z,18.74
2018-06-04T17:10:25.112Z,18.63
2018-06-04T17:12:52.092Z,18.73
2018-06-04T17:15:18.975Z,18.56
2018-06-04T17:17:45.863Z,18.40
2018-06-04T17:20:12.824Z,18.48
2018-06-04T17:22:39.728Z,18.60
2018-06-04T17:25:06.636Z,18.60
2018-06-04T17:27:33.532Z,18.55
2018-06-04T17:30:00.449Z,18.80
2018-06-04T17:32:27.351Z,18.63
2018-06-04T17:34:54.272Z,18.67
2018-06-04T17:37:21.184Z,18.82
2018-06-04T17:39:48.064Z,18.76
2018-06-04T17:42:14.974Z,18.63
2018-06-04T17:44:41.871Z,18.72
2018-06-04T17:47:08.816Z,18.49
2018-06-04T17:49:35.712Z,18.63
2018-06-04T17:52:02.711Z,18.53
2018-06-04T17:54:29.658Z,18.52
2018-06-04T17:56:56.699Z,18.46
2018-06-04T17:59:23.862Z,18.42
2018-06-04T18:01:51.631Z,18.50
2018-06-04T18:04:18.585Z,18.60
2018-06-04T18:06:46.538Z,18.45
2018-06-04T18:09:14.787Z,18.40
2018-06-04T18:11:41.916Z,18.46
2018-06-04T18:14:10.024Z,18.51
2018-06-04T18:16:37.320Z,18.41
2018-06-04T18:19:05.366Z,18.39
2018-06-04T18:21:33.764Z,18.40
2018-06-04T18:24:02.125Z,18.31
2018-06-04T18:26:30.718Z,18.36
2018-06-04T18:28:58.490Z,18.25
2018-06-04T18:31:26.676Z,18.29
2018-06-04T18:33:54.037Z,18.17
2018-06-04T18:36:21.967Z,18.14
2018-06-04T18:38:49.815Z,18.11
2018-06-04T18:41:16.899Z,18.16
2018-06-04T18:43:43.944Z,18.12
2018-06-04T18:46:11.137Z,18.12
2018-06-04T18:48:38.299Z,18.04
2018-06-04T18:51:05.419Z,18.09
2018-06-04T18:53:32.293Z,18.00
2018-06-04T18:55:59.184Z,18.08
2018-06-04T18:58:26.080Z,18.05
2018-06-04T19:00:52.965Z,17.99
2018-06-04T19:03:19.856Z,17.94
2018-06-04T19:05:46.745Z,17.95
2018-06-04T19:08:13.632Z,17.90
2018-06-04T19:10:40.933Z,17.90
2018-06-04T19:13:07.841Z,17.84
2018-06-04T19:15:34.764Z,17.79
2018-06-04T19:18:03.928Z,17.82
2018-06-04T19:20:33.183Z,17.84
2018-06-04T19:23:04.035Z,17.84
2018-06-04T19:25:31.001Z,17.80
2018-06-04T19:27:57.973Z,17.68
2018-06-04T19:30:24.869Z,17.62
2018-06-04T19:32:52.412Z,17.69
2018-06-04T19:35:19.396Z,17.57
2018-06-04T19:37:46.536Z,17.54
2018-06-04T19:40:13.447Z,17.52
2018-06-04T19:42:43.288Z,17.56
2018-06-04T19:45:10.180Z,17.50
2018-06-04T19:47:37.066Z,17.47
2018-06-04T19:50:04.315Z,17.42
2018-06-04T19:52:31.204Z,17.36
2018-06-04T19:54:58.091Z,17.40
2018-06-04T19:57:24.996Z,17.34
2018-06-04T19:59:51.875Z,17.37
2018-06-04T20:02:18.751Z,17.24
2018-06-04T20:04:45.647Z,17.27
2018-06-04T20:07:12.533Z,17.12
2018-06-04T20:09:39.423Z,17.11
2018-06-04T20:12:06.288Z,17.10
2018-06-04T20:14:33.179Z,17.09
2018-06-04T20:17:00.848Z,17.10
2018-06-04T20:19:27.739Z,17.07
2018-06-04T20:21:54.627Z,17.12
2018-06-04T20:24:21.511Z,17.08
2018-06-04T20:26:48.398Z,17.08
2018-06-04T20:29:15.356Z,17.03
2018-06-04T20:31:42.236Z,17.03
2018-06-04T20:34:09.139Z,16.96
2018-06-04T20:36:36.037Z,16.93
2018-06-04T20:39:04.656Z,16.92
2018-06-04T20:41:31.545Z,16.92
2018-06-04T20:43:58.482Z,16.93
2018-06-04T20:46:25.338Z,16.86
2018-06-04T20:48:52.237Z,16.84
2018-06-04T20:51:19.133Z,16.82
2018-06-04T20:53:46.017Z,16.78
2018-06-04T20:56:12.916Z,16.69
2018-06-04T20:58:39.792Z,16.67
2018-06-04T21:01:06.705Z,16.56
2018-06-04T21:03:33.653Z,16.53
2018-06-04T21:06:00.559Z,16.47
2018-06-04T21:08:27.445Z,16.35
2018-06-04T21:10:54.458Z,16.30
2018-06-04T21:13:21.367Z,16.29
2018-06-04T21:15:48.303Z,16.25
2018-06-04T21:18:15.188Z,16.19
2018-06-04T21:20:42.078Z,16.14
2018-06-04T21:23:08.983Z,16.04
2018-06-04T21:25:35.883Z,15.94
2018-06-04T21:28:02.765Z,15.90
2018-06-04T21:30:29.679Z,15.81
2018-06-04T21:32:56.571Z,15.71
2018-06-04T21:35:23.473Z,15.66
2018-06-04T21:37:50.379Z,15.57
2018-06-04T21:40:17.270Z,15.53
2018-06-04T21:42:44.151Z,15.44
2018-06-04T21:45:11.049Z,15.32
2018-06-04T21:47:37.936Z,15.27
2018-06-04T21:50:05.065Z,15.24
2018-06-04T21:52:31.947Z,15.12
2018-06-04T21:54:58.843Z,15.07
2018-06-04T21:57:25.728Z,15.05
2018-06-04T21:59:52.636Z,14.98
2018-06-04T22:02:19.521Z,14.94
2018-06-04T22:04:46.433Z,14.93
2018-06-04T22:07:13.315Z,14.84
2018-06-04T22:09:40.217Z,14.76
2018-06-04T22:12:07.096Z,14.75
2018-06-04T22:14:34.008Z,14.72
2018-06-04T22:17:00.918Z,14.61
2018-06-04T22:19:27.867Z,14.59
2018-06-04T22:21:54.763Z,14.51
2018-06-04T22:24:21.655Z,14.46
2018-06-04T22:26:48.531Z,14.45
2018-06-04T22:29:15.429Z,14.46
2018-06-04T22:31:42.319Z,14.39
2018-06-04T22:34:09.204Z,14.35
2018-06-04T22:36:36.216Z,14.31
2018-06-04T22:39:05.344Z,14.31
2018-06-04T22:41:32.222Z,14.16
2018-06-04T22:43:59.149Z,14.21
2018-06-04T22:46:26.016Z,14.17
2018-06-04T22:48:52.915Z,14.11
2018-06-04T22:51:19.801Z,14.13
2018-06-04T22:53:46.717Z,14.12
2018-06-04T22:56:13.599Z,14.06
2018-06-04T22:58:41.269Z,14.09
2018-06-04T23:01:08.861Z,13.99
2018-06-04T23:03:36.731Z,13.94
2018-06-04T23:06:03.745Z,13.84
2018-06-04T23:08:30.694Z,13.85
2018-06-04T23:10:57.595Z,13.79
2018-06-04T23:13:24.517Z,13.84
2018-06-04T23:15:51.413Z,13.80
2018-06-04T23:18:19.152Z,13.77
2018-06-04T23:20:46.069Z,13.77
2018-06-04T23:23:13.000Z,13.79
2018-06-04T23:25:40.165Z,13.79
2018-06-04T23:28:07.383Z,13.77
2018-06-04T23:30:34.423Z,13.71
2018-06-04T23:33:01.881Z,13.66
2018-06-04T23:35:28.990Z,13.68
2018-06-04T23:37:56.517Z,13.64
2018-06-04T23:40:23.444Z,13.68
2018-06-04T23:42:50.346Z,13.64
2018-06-04T23:45:17.263Z,13.62
2018-06-04T23:47:44.172Z,13.65
2018-06-04T23:50:11.081Z,13.65
2018-06-04T23:52:38.224Z,13.68
2018-06-04T23:55:05.774Z,13.63
2018-06-04T23:57:32.664Z,13.72
2018-06-04T23:59:59.572Z,13.70
